Time;durP1;ratioP1;P1;durP2;ratioP2;P2;SDS_P1;SDS_P2;PMS_P1;PMS_P2;Temp;Humidity;BMP_temperature;BMP_pressure;BME280_temperature;BME280_humidity;BME280_pressure;Samples;Min_cycle;Max_cycle;Signal;HPM_P1;HPM_P2
2023/10/28 00:01:51;;;;;;;;;;;20.00;91.70;;;;;;5113691;28;20036;-74
2023/10/28 00:04:18;;;;;;;;;;;20.00;91.80;;;;;;5113585;28;19908;-72
2023/10/28 00:06:45;;;;;;;;;;;20.00;91.80;;;;;;5113678;28;19915;-72
2023/10/28 00:09:11;;;;;;;;;;;19.90;91.60;;;;;;5113882;28;19930;-73
2023/10/28 00:11:38;;;;;;;;;;;19.80;91.70;;;;;;5113756;28;19930;-73
2023/10/28 00:14:05;;;;;;;;;;;19.80;91.70;;;;;;5113775;28;19912;-73
2023/10/28 00:16:32;;;;;;;;;;;19.90;91.80;;;;;;5113513;28;19914;-72
2023/10/28 00:18:59;;;;;;;;;;;20.10;91.20;;;;;;5095679;28;19919;-73
2023/10/28 00:21:26;;;;;;;;;;;20.20;90.40;;;;;;5113403;28;19930;-73
2023/10/28 00:23:52;;;;;;;;;;;20.30;90.00;;;;;;5095053;28;20386;-72
2023/10/28 00:26:20;;;;;;;;;;;20.40;89.20;;;;;;5095203;28;19908;-73
2023/10/28 00:28:46;;;;;;;;;;;20.60;88.30;;;;;;5094791;28;20395;-72
2023/10/28 00:31:19;;;;;;;;;;;20.90;87.60;;;;;;5113515;28;19970;-75
2023/10/28 00:33:45;;;;;;;;;;;20.80;87.20;;;;;;5111400;27;20009;-72
2023/10/28 00:36:12;;;;;;;;;;;20.90;88.30;;;;;;5114295;27;20296;-73
2023/10/28 00:38:39;;;;;;;;;;;21.20;87.80;;;;;;5127304;27;19947;-73
2023/10/28 00:41:06;;;;;;;;;;;21.40;85.70;;;;;;5096649;28;20006;-73
2023/10/28 00:43:32;;;;;;;;;;;21.50;84.10;;;;;;5096987;28;19922;-72
2023/10/28 00:45:59;;;;;;;;;;;21.50;84.90;;;;;;5106916;28;20358;-74
2023/10/28 00:48:28;;;;;;;;;;;21.60;84.10;;;;;;5093683;28;19932;-74
2023/10/28 00:50:54;;;;;;;;;;;21.80;84.10;;;;;;5108403;28;19946;-73
2023/10/28 00:53:24;;;;;;;;;;;21.80;83.60;;;;;;5092416;28;20021;-73
2023/10/28 00:55:51;;;;;;;;;;;21.80;82.60;;;;;;5082121;28;19911;-73
2023/10/28 00:58:22;;;;;;;;;;;21.80;82.40;;;;;;5108873;28;19908;-72
2023/10/28 01:00:49;;;;;;;;;;;21.70;82.00;;;;;;5112203;28;20357;-72
2023/10/28 01:03:16;;;;;;;;;;;21.70;81.50;;;;;;5112078;28;19908;-72
2023/10/28 01:05:43;;;;;;;;;;;21.70;81.80;;;;;;5111868;28;19915;-73
2023/10/28 01:08:09;;;;;;;;;;;21.70;82.00;;;;;;5112287;28;19908;-72
2023/10/28 01:10:38;;;;;;;;;;;21.90;81.30;;;;;;5113146;28;20390;-74
2023/10/28 01:13:06;;;;;;;;;;;21.80;82.80;;;;;;5114972;28;19911;-72
2023/10/28 01:15:33;;;;;;;;;;;22.00;81.10;;;;;;5115782;28;20276;-72
2023/10/28 01:17:59;;;;;;;;;;;22.20;80.20;;;;;;5114531;28;19919;-71
2023/10/28 01:20:26;;;;;;;;;;;22.30;79.10;;;;;;5116788;28;19908;-72
2023/10/28 01:22:53;;;;;;;;;;;22.60;79.20;;;;;;5098523;28;19953;-72
2023/10/28 01:25:20;;;;;;;;;;;22.60;78.60;;;;;;5117092;28;20423;-71
2023/10/28 01:27:47;;;;;;;;;;;22.60;78.70;;;;;;5116503;28;19908;-72
2023/10/28 01:30:14;;;;;;;;;;;22.40;79.00;;;;;;5116273;28;19916;-70
2023/10/28 01:32:41;;;;;;;;;;;22.20;79.30;;;;;;5115253;28;19961;-72
2023/10/28 01:35:12;;;;;;;;;;;22.10;80.70;;;;;;5115263;28;19908;-73
2023/10/28 01:37:39;;;;;;;;;;;22.10;78.40;;;;;;5112892;28;19908;-71
2023/10/28 01:40:17;;;;;;;;;;;22.10;78.80;;;;;;5116247;28;20316;-74
2023/10/28 01:42:45;;;;;;;;;;;22.00;79.40;;;;;;5112737;28;20331;-73
2023/10/28 01:45:13;;;;;;;;;;;21.80;80.10;;;;;;5097613;28;19919;-72
2023/10/28 01:47:41;;;;;;;;;;;21.70;80.80;;;;;;5115351;28;19907;-77
2023/10/28 01:50:08;;;;;;;;;;;21.60;81.00;;;;;;5115393;28;20380;-71
2023/10/28 01:52:34;;;;;;;;;;;21.20;81.90;;;;;;5115173;28;19911;-73
2023/10/28 01:55:02;;;;;;;;;;;21.20;82.70;;;;;;5115532;28;20268;-73
2023/10/28 01:57:28;;;;;;;;;;;21.20;82.10;;;;;;5115794;28;19922;-72
2023/10/28 01:59:55;;;;;;;;;;;21.30;82.90;;;;;;5115743;28;19937;-72
2023/10/28 02:02:22;;;;;;;;;;;21.30;84.60;;;;;;5114971;28;20340;-75
2023/10/28 02:04:48;;;;;;;;;;;21.30;83.50;;;;;;5116000;28;19908;-72
2023/10/28 02:07:16;;;;;;;;;;;21.40;85.00;;;;;;5116053;28;20380;-73
2023/10/28 02:09:42;;;;;;;;;;;21.10;87.30;;;;;;5115946;28;19916;-72
2023/10/28 02:12:10;;;;;;;;;;;20.90;88.80;;;;;;5116079;28;19933;-74
2023/10/28 02:14:37;;;;;;;;;;;20.90;90.20;;;;;;5115780;28;19915;-73
2023/10/28 02:17:04;;;;;;;;;;;20.80;89.00;;;;;;5114930;28;20053;-76
2023/10/28 02:19:31;;;;;;;;;;;20.60;89.50;;;;;;5115299;28;19908;-73
2023/10/28 02:21:58;;;;;;;;;;;20.60;90.30;;;;;;5114586;28;19930;-71
2023/10/28 02:24:25;;;;;;;;;;;20.40;90.30;;;;;;5115067;28;20014;-76
2023/10/28 02:26:52;;;;;;;;;;;20.40;90.10;;;;;;5094725;28;19951;-73
2023/10/28 02:29:19;;;;;;;;;;;20.40;90.20;;;;;;5094707;28;19916;-81
2023/10/28 02:31:46;;;;;;;;;;;20.40;89.50;;;;;;5094996;28;19912;-75
2023/10/28 02:34:12;;;;;;;;;;;20.70;88.90;;;;;;5102620;28;19912;-72
2023/10/28 02:36:39;;;;;;;;;;;20.90;88.00;;;;;;5113674;28;19916;-72
2023/10/28 02:39:06;;;;;;;;;;;21.20;89.10;;;;;;5095264;28;19915;-72
2023/10/28 02:41:33;;;;;;;;;;;21.50;87.30;;;;;;5097433;28;20007;-72
2023/10/28 02:44:02;;;;;;;;;;;21.80;86.40;;;;;;5095215;28;19961;-73
2023/10/28 02:46:29;;;;;;;;;;;22.10;85.20;;;;;;5094841;28;19908;-72
2023/10/28 02:48:56;;;;;;;;;;;22.50;85.10;;;;;;5076726;28;19942;-73
2023/10/28 02:51:22;;;;;;;;;;;22.70;84.20;;;;;;5094674;28;20960;-74
2023/10/28 02:53:49;;;;;;;;;;;23.10;83.40;;;;;;5074883;28;19954;-74
2023/10/28 02:56:16;;;;;;;;;;;23.20;82.10;;;;;;5093212;28;19909;-74
2023/10/28 02:58:43;;;;;;;;;;;23.30;83.30;;;;;;5093053;28;20208;-74
2023/10/28 03:01:10;;;;;;;;;;;23.30;82.70;;;;;;5093175;28;20219;-73
2023/10/28 03:03:37;;;;;;;;;;;23.20;81.70;;;;;;5092760;28;19908;-73
2023/10/28 03:06:04;;;;;;;;;;;23.10;82.50;;;;;;5093003;28;19908;-73
2023/10/28 03:08:31;;;;;;;;;;;23.20;82.50;;;;;;5094409;28;19908;-72
2023/10/28 03:10:58;;;;;;;;;;;23.00;82.30;;;;;;5094657;28;19922;-73
2023/10/28 03:13:27;;;;;;;;;;;22.70;83.80;;;;;;5094424;28;19908;-74
2023/10/28 03:15:54;;;;;;;;;;;22.50;84.00;;;;;;5094735;28;19915;-73
2023/10/28 03:18:20;;;;;;;;;;;22.20;84.20;;;;;;5094663;28;19916;-74
2023/10/28 03:20:47;;;;;;;;;;;21.90;84.30;;;;;;5094355;28;20374;-73
2023/10/28 03:23:14;;;;;;;;;;;21.60;84.90;;;;;;5094444;28;19908;-75
2023/10/28 03:25:41;;;;;;;;;;;21.40;85.60;;;;;;5094251;28;20344;-73
2023/10/28 03:28:08;;;;;;;;;;;21.10;86.50;;;;;;5094328;28;20322;-73
2023/10/28 03:30:35;;;;;;;;;;;20.70;89.20;;;;;;5093994;28;20404;-73
2023/10/28 03:33:01;;;;;;;;;;;20.50;90.40;;;;;;5094087;28;20003;-73
2023/10/28 03:35:28;;;;;;;;;;;20.20;90.90;;;;;;5094280;28;20003;-73
2023/10/28 03:37:57;;;;;;;;;;;20.10;91.00;;;;;;5093946;28;20376;-73
2023/10/28 03:40:24;;;;;;;;;;;19.90;91.20;;;;;;5093898;28;20377;-74
2023/10/28 03:42:51;;;;;;;;;;;19.90;91.10;;;;;;5093911;28;19977;-74
2023/10/28 03:45:17;;;;;;;;;;;19.70;91.30;;;;;;5093773;28;19915;-74
2023/10/28 03:47:44;;;;;;;;;;;19.80;91.80;;;;;;5093674;28;19914;-73
2023/10/28 03:50:11;;;;;;;;;;;20.10;92.00;;;;;;5093547;28;19917;-73
2023/10/28 03:52:37;;;;;;;;;;;20.10;91.60;;;;;;5093573;28;19961;-73
2023/10/28 03:55:04;;;;;;;;;;;20.10;91.40;;;;;;5075782;28;19915;-74
2023/10/28 03:57:31;;;;;;;;;;;20.10;92.10;;;;;;5093798;28;19915;-73
2023/10/28 03:59:58;;;;;;;;;;;20.10;93.00;;;;;;5093611;28;19908;-72
2023/10/28 04:02:25;;;;;;;;;;;20.20;93.00;;;;;;5093693;28;19914;-72
2023/10/28 04:04:52;;;;;;;;;;;20.20;92.70;;;;;;5093557;28;19950;-72
2023/10/28 04:07:19;;;;;;;;;;;20.30;92.90;;;;;;5093434;28;19908;-75
2023/10/28 04:09:45;;;;;;;;;;;20.40;92.70;;;;;;5093734;28;19920;-73
2023/10/28 04:12:12;;;;;;;;;;;20.40;92.70;;;;;;5091522;28;19908;-74
2023/10/28 04:14:38;;;;;;;;;;;20.60;92.30;;;;;;5091363;28;19912;-74
2023/10/28 04:17:05;;;;;;;;;;;20.70;91.90;;;;;;5091340;28;19912;-75
2023/10/28 04:19:32;;;;;;;;;;;20.80;92.00;;;;;;5091475;28;19908;-73
2023/10/28 04:21:58;;;;;;;;;;;21.20;91.90;;;;;;5091189;28;19908;-74
2023/10/28 04:24:25;;;;;;;;;;;21.60;91.30;;;;;;5091177;28;19916;-73
2023/10/28 04:26:52;;;;;;;;;;;22.10;90.70;;;;;;5092465;28;19953;-73
2023/10/28 04:29:19;;;;;;;;;;;22.70;88.60;;;;;;5093302;28;19939;-74
2023/10/28 04:31:46;;;;;;;;;;;23.30;87.90;;;;;;5074808;28;19908;-73
2023/10/28 04:34:12;;;;;;;;;;;24.00;83.60;;;;;;5092976;28;19908;-74
2023/10/28 04:36:39;;;;;;;;;;;24.60;82.80;;;;;;5093223;28;19954;-73
2023/10/28 04:39:06;;;;;;;;;;;26.20;79.10;;;;;;5093021;28;19912;-74
2023/10/28 04:41:33;;;;;;;;;;;27.40;77.20;;;;;;5093020;28;19909;-74
2023/10/28 04:44:01;;;;;;;;;;;29.20;71.50;;;;;;5092920;28;19915;-74
2023/10/28 04:46:29;;;;;;;;;;;30.20;70.30;;;;;;5092563;28;19916;-73
2023/10/28 04:48:56;;;;;;;;;;;31.40;67.00;;;;;;5105472;28;20372;-74
2023/10/28 04:51:24;;;;;;;;;;;32.20;65.90;;;;;;5111442;28;20361;-73
2023/10/28 04:53:50;;;;;;;;;;;31.80;65.60;;;;;;5111086;28;19933;-74
2023/10/28 04:56:18;;;;;;;;;;;32.30;64.70;;;;;;5112089;28;19912;-73
2023/10/28 04:58:44;;;;;;;;;;;31.70;63.60;;;;;;5112009;28;19912;-73
2023/10/28 05:01:11;;;;;;;;;;;30.60;65.60;;;;;;5112386;28;19966;-75
2023/10/28 05:03:38;;;;;;;;;;;30.30;66.40;;;;;;5112555;28;19998;-74
2023/10/28 05:06:04;;;;;;;;;;;30.00;66.40;;;;;;5112689;28;20287;-74
2023/10/28 05:08:31;;;;;;;;;;;30.20;66.40;;;;;;5110583;28;20014;-74
2023/10/28 05:10:58;;;;;;;;;;;30.80;65.80;;;;;;5112502;28;19999;-74
2023/10/28 05:13:24;;;;;;;;;;;30.40;63.80;;;;;;5112819;28;19908;-74
2023/10/28 05:15:51;;;;;;;;;;;30.00;66.00;;;;;;5112363;28;19908;-74
2023/10/28 05:18:18;;;;;;;;;;;30.60;64.70;;;;;;5112284;28;19908;-74
2023/10/28 05:20:44;;;;;;;;;;;30.60;65.20;;;;;;5112043;28;19965;-73
2023/10/28 05:23:13;;;;;;;;;;;31.30;63.70;;;;;;5092361;28;20301;-74
2023/10/28 05:25:39;;;;;;;;;;;31.40;62.70;;;;;;5111299;28;19969;-74
2023/10/28 05:28:06;;;;;;;;;;;30.70;63.20;;;;;;5106992;28;19964;-76
2023/10/28 05:30:32;;;;;;;;;;;31.10;63.50;;;;;;5111032;28;19927;-73
2023/10/28 05:33:00;;;;;;;;;;;31.00;62.70;;;;;;5111756;28;19915;-73
2023/10/28 05:35:27;;;;;;;;;;;30.90;64.20;;;;;;5110960;28;19912;-75
2023/10/28 05:37:53;;;;;;;;;;;31.20;64.30;;;;;;5111942;28;19911;-73
2023/10/28 05:40:20;;;;;;;;;;;30.70;66.40;;;;;;5112533;28;19961;-75
2023/10/28 05:42:47;;;;;;;;;;;31.10;65.50;;;;;;5111905;28;19978;-74
2023/10/28 05:45:14;;;;;;;;;;;30.60;65.30;;;;;;5111910;28;19911;-74
2023/10/28 05:47:41;;;;;;;;;;;30.10;65.80;;;;;;5111944;28;19915;-73
2023/10/28 05:50:07;;;;;;;;;;;28.80;67.30;;;;;;5111811;28;19951;-74
2023/10/28 05:52:34;;;;;;;;;;;29.00;69.60;;;;;;5111895;28;19994;-73
2023/10/28 05:55:02;;;;;;;;;;;29.80;67.60;;;;;;5093316;28;20258;-74
2023/10/28 05:57:29;;;;;;;;;;;29.60;67.60;;;;;;5113291;28;20385;-74
2023/10/28 05:59:56;;;;;;;;;;;29.60;66.90;;;;;;5115613;28;19915;-74
2023/10/28 06:02:24;;;;;;;;;;;28.90;67.40;;;;;;5115910;28;20387;-74
2023/10/28 06:04:52;;;;;;;;;;;28.30;68.20;;;;;;5115666;28;19911;-75
2023/10/28 06:07:18;;;;;;;;;;;28.40;69.60;;;;;;5115465;28;19919;-72
2023/10/28 06:09:47;;;;;;;;;;;27.70;69.00;;;;;;5115678;28;20406;-73
2023/10/28 06:12:14;;;;;;;;;;;27.10;71.30;;;;;;5115272;28;19912;-72
2023/10/28 06:14:42;;;;;;;;;;;25.80;71.50;;;;;;5115158;28;19908;-71
2023/10/28 06:17:08;;;;;;;;;;;25.30;73.20;;;;;;5114905;28;20360;-72
2023/10/28 06:19:35;;;;;;;;;;;24.20;73.90;;;;;;5115129;28;19908;-73
2023/10/28 06:22:02;;;;;;;;;;;22.80;77.90;;;;;;5096538;28;20065;-72
2023/10/28 06:24:28;;;;;;;;;;;22.90;78.70;;;;;;5114917;28;20056;-74
2023/10/28 06:26:57;;;;;;;;;;;23.50;79.00;;;;;;5114962;28;20002;-73
2023/10/28 06:29:23;;;;;;;;;;;24.20;76.20;;;;;;5114695;28;19961;-73
2023/10/28 06:31:50;;;;;;;;;;;24.50;75.20;;;;;;5115189;28;19915;-75
2023/10/28 06:34:17;;;;;;;;;;;24.30;76.10;;;;;;5115154;28;19908;-72
2023/10/28 06:36:43;;;;;;;;;;;24.00;75.50;;;;;;5115325;28;19911;-73
2023/10/28 06:39:10;;;;;;;;;;;23.50;75.50;;;;;;5112008;28;20434;-71
2023/10/28 06:41:37;;;;;;;;;;;23.20;76.60;;;;;;5113594;28;19907;-76
2023/10/28 06:44:06;;;;;;;;;;;22.70;76.60;;;;;;5114457;28;19914;-73
2023/10/28 06:46:32;;;;;;;;;;;22.20;78.40;;;;;;5113886;28;19908;-75
2023/10/28 06:48:59;;;;;;;;;;;22.20;79.30;;;;;;5114318;28;20006;-74
2023/10/28 06:51:26;;;;;;;;;;;21.90;79.40;;;;;;5096782;28;20446;-73
2023/10/28 06:53:53;;;;;;;;;;;21.60;80.10;;;;;;5114985;28;19951;-74
2023/10/28 06:56:19;;;;;;;;;;;21.40;80.30;;;;;;5115109;28;19991;-76
2023/10/28 06:58:46;;;;;;;;;;;21.00;81.60;;;;;;5115379;28;20264;-77
2023/10/28 07:01:12;;;;;;;;;;;21.30;82.90;;;;;;5114988;28;19908;-73
2023/10/28 07:03:40;;;;;;;;;;;21.60;81.10;;;;;;5115065;28;19993;-73
2023/10/28 07:06:14;;;;;;;;;;;21.70;80.90;;;;;;5114772;28;19919;-73
2023/10/28 07:08:41;;;;;;;;;;;21.70;80.20;;;;;;5114627;28;19919;-76
2023/10/28 07:11:08;;;;;;;;;;;21.50;80.90;;;;;;5114788;28;19916;-75
2023/10/28 07:13:34;;;;;;;;;;;21.10;80.70;;;;;;5112913;28;19950;-76
2023/10/28 07:16:04;;;;;;;;;;;20.50;82.90;;;;;;5114018;28;19912;-75
2023/10/28 07:18:31;;;;;;;;;;;20.40;83.30;;;;;;5114320;28;19953;-75
2023/10/28 07:20:58;;;;;;;;;;;20.10;83.90;;;;;;5114687;28;19911;-78
2023/10/28 07:23:28;;;;;;;;;;;19.90;85.40;;;;;;5114172;28;19937;-78
2023/10/28 07:25:54;;;;;;;;;;;19.60;85.30;;;;;;5114807;28;19908;-78
2023/10/28 07:28:21;;;;;;;;;;;19.50;86.10;;;;;;5111440;28;20415;-77
2023/10/28 07:30:50;;;;;;;;;;;19.40;86.30;;;;;;5113031;28;19915;-77
2023/10/28 07:33:20;;;;;;;;;;;19.20;86.20;;;;;;5110443;28;20002;-75
2023/10/28 07:35:48;;;;;;;;;;;19.10;86.70;;;;;;5112094;28;20015;-76
2023/10/28 07:38:15;;;;;;;;;;;19.00;87.30;;;;;;5112223;28;20377;-74
2023/10/28 07:40:41;;;;;;;;;;;19.00;86.80;;;;;;5113977;28;19950;-76
2023/10/28 07:43:10;;;;;;;;;;;19.10;87.70;;;;;;5113880;28;19964;-74
2023/10/28 07:45:38;;;;;;;;;;;19.00;87.00;;;;;;5114187;28;20431;-74
2023/10/28 07:48:06;;;;;;;;;;;19.00;87.60;;;;;;5113332;28;19926;-74
2023/10/28 07:50:39;;;;;;;;;;;19.10;88.50;;;;;;5097309;28;19920;-75
2023/10/28 07:53:06;;;;;;;;;;;19.00;88.70;;;;;;5093280;28;19908;-75
2023/10/28 07:55:33;;;;;;;;;;;19.10;88.80;;;;;;5093407;28;19912;-74
2023/10/28 07:57:59;;;;;;;;;;;19.10;89.30;;;;;;5094324;28;19909;-74
2023/10/28 08:00:26;;;;;;;;;;;19.10;87.90;;;;;;5113759;28;20400;-74
2023/10/28 08:02:53;;;;;;;;;;;19.00;88.90;;;;;;5113770;28;19988;-74
2023/10/28 08:05:20;;;;;;;;;;;18.90;89.50;;;;;;5107252;28;19919;-74
2023/10/28 08:07:47;;;;;;;;;;;18.90;89.60;;;;;;5093596;28;19908;-75
2023/10/28 08:10:14;;;;;;;;;;;18.70;89.70;;;;;;5109578;28;20284;-74
2023/10/28 08:12:41;;;;;;;;;;;18.70;90.10;;;;;;5111739;28;19918;-73
2023/10/28 08:15:08;;;;;;;;;;;18.60;90.10;;;;;;5112339;28;19916;-74
2023/10/28 08:17:35;;;;;;;;;;;18.50;90.00;;;;;;5113263;28;19908;-77
2023/10/28 08:20:03;;;;;;;;;;;18.40;90.40;;;;;;5093720;28;20276;-76
2023/10/28 08:22:30;;;;;;;;;;;18.40;90.20;;;;;;5113272;28;19941;-76
2023/10/28 08:24:57;;;;;;;;;;;18.30;90.50;;;;;;5113480;28;20622;-74
2023/10/28 08:27:23;;;;;;;;;;;18.20;90.60;;;;;;5113088;28;19943;-77
2023/10/28 08:29:51;;;;;;;;;;;18.00;91.00;;;;;;5112373;28;19923;-75
2023/10/28 08:32:18;;;;;;;;;;;17.90;91.20;;;;;;5113000;28;19915;-74
2023/10/28 08:34:45;;;;;;;;;;;17.80;91.60;;;;;;5112973;28;19912;-73
2023/10/28 08:37:13;;;;;;;;;;;17.80;91.90;;;;;;5112987;28;19914;-72
2023/10/28 08:39:41;;;;;;;;;;;17.80;92.20;;;;;;5112488;28;19907;-73
2023/10/28 08:42:07;;;;;;;;;;;17.80;92.30;;;;;;5112787;28;20376;-74
2023/10/28 08:44:34;;;;;;;;;;;17.80;92.60;;;;;;5113114;28;20357;-75
2023/10/28 08:47:07;;;;;;;;;;;17.70;93.00;;;;;;5113032;28;19964;-73
2023/10/28 08:49:38;;;;;;;;;;;17.70;93.30;;;;;;5112256;28;20052;-73
2023/10/28 08:52:07;;;;;;;;;;;17.70;93.70;;;;;;5112483;28;19919;-73
2023/10/28 08:54:38;;;;;;;;;;;17.60;93.90;;;;;;5112086;28;21541;-73
2023/10/28 08:57:07;;;;;;;;;;;17.60;94.30;;;;;;5112906;28;19957;-73
2023/10/28 08:59:34;;;;;;;;;;;17.50;94.70;;;;;;5112632;28;20014;-73
2023/10/28 09:02:07;;;;;;;;;;;17.50;95.20;;;;;;5094214;28;19998;-73
2023/10/28 09:04:34;;;;;;;;;;;17.50;95.70;;;;;;5112723;28;19908;-75
2023/10/28 09:07:04;;;;;;;;;;;17.50;96.10;;;;;;5112739;28;19974;-76
2023/10/28 09:09:31;;;;;;;;;;;17.50;96.60;;;;;;5112026;28;19912;-73
2023/10/28 09:11:59;;;;;;;;;;;17.50;97.10;;;;;;5112565;28;19915;-73
2023/10/28 09:14:25;;;;;;;;;;;17.50;97.50;;;;;;5094146;28;19912;-74
2023/10/28 09:16:53;;;;;;;;;;;17.30;97.90;;;;;;5112846;28;19908;-74
2023/10/28 09:19:21;;;;;;;;;;;17.30;98.40;;;;;;5112677;28;20376;-74
2023/10/28 09:21:52;;;;;;;;;;;17.30;98.70;;;;;;5112484;28;20284;-76
2023/10/28 09:24:21;;;;;;;;;;;17.30;99.10;;;;;;5094390;28;19914;-75
2023/10/28 09:26:50;;;;;;;;;;;17.30;99.40;;;;;;5112695;28;19907;-75
2023/10/28 09:29:30;;;;;;;;;;;17.30;99.90;;;;;;5112727;28;19915;-77
2023/10/28 09:32:08;;;;;;;;;;;17.30;99.90;;;;;;5113812;28;19912;-75
2023/10/28 09:34:38;;;;;;;;;;;17.30;99.90;;;;;;5115933;28;20361;-75
2023/10/28 09:37:08;;;;;;;;;;;17.30;99.90;;;;;;5116349;28;19915;-76
2023/10/28 09:39:35;;;;;;;;;;;17.20;99.90;;;;;;5116102;28;19908;-76
2023/10/28 09:42:02;;;;;;;;;;;17.30;99.90;;;;;;5116696;28;20341;-75
2023/10/28 09:44:29;;;;;;;;;;;17.30;99.90;;;;;;5116749;28;19915;-75
2023/10/28 09:47:01;;;;;;;;;;;17.30;99.90;;;;;;5116608;28;20253;-75
2023/10/28 09:49:29;;;;;;;;;;;17.30;99.90;;;;;;5111026;28;19920;-75
2023/10/28 09:51:59;;;;;;;;;;;17.10;99.90;;;;;;5116302;28;20390;-74
2023/10/28 09:54:30;;;;;;;;;;;17.10;99.90;;;;;;5116206;28;19910;-75
2023/10/28 09:56:59;;;;;;;;;;;17.10;99.90;;;;;;5116387;28;20268;-75
2023/10/28 09:59:26;;;;;;;;;;;17.10;99.90;;;;;;5116370;28;19957;-75
2023/10/28 10:02:12;;;;;;;;;;;17.10;99.90;;;;;;5116337;28;19914;-74
2023/10/28 10:04:44;;;;;;;;;;;17.10;99.90;;;;;;5116262;28;19912;-76
2023/10/28 10:07:11;;;;;;;;;;;17.10;99.90;;;;;;5115527;28;19999;-78
2023/10/28 10:09:41;;;;;;;;;;;17.10;99.90;;;;;;5116108;28;20360;-77
2023/10/28 10:12:08;;;;;;;;;;;17.00;99.90;;;;;;5115722;28;20465;-77
2023/10/28 10:14:38;;;;;;;;;;;17.00;99.90;;;;;;5115729;28;19939;-77
2023/10/28 10:17:44;;;;;;;;;;;16.90;99.90;;;;;;5097406;28;20311;-72
2023/10/28 10:20:11;;;;;;;;;;;16.90;99.90;;;;;;5052921;28;19913;-73
2023/10/28 10:22:41;;;;;;;;;;;16.90;99.90;;;;;;5052907;28;20362;-74
2023/10/28 10:25:09;;;;;;;;;;;17.00;99.90;;;;;;5085265;28;19960;-76
2023/10/28 10:27:45;;;;;;;;;;;16.90;99.90;;;;;;5115976;28;19915;-75
2023/10/28 10:30:13;;;;;;;;;;;16.90;99.90;;;;;;5115748;28;19919;-75
2023/10/28 10:32:46;;;;;;;;;;;16.80;99.90;;;;;;5115793;28;19908;-76
2023/10/28 10:35:26;;;;;;;;;;;16.80;99.90;;;;;;5115650;28;19908;-75
2023/10/28 10:38:06;;;;;;;;;;;16.80;99.90;;;;;;5115934;28;19985;-75
2023/10/28 10:40:34;;;;;;;;;;;16.80;99.90;;;;;;5097554;28;20387;-76
2023/10/28 10:43:05;;;;;;;;;;;16.80;99.90;;;;;;5114676;28;20276;-73
2023/10/28 10:45:34;;;;;;;;;;;16.80;99.90;;;;;;5115558;28;19915;-74
2023/10/28 10:48:02;;;;;;;;;;;16.80;99.90;;;;;;5115388;28;19927;-76
2023/10/28 10:50:30;;;;;;;;;;;16.90;99.90;;;;;;5115108;28;19942;-76
2023/10/28 10:52:57;;;;;;;;;;;16.80;99.90;;;;;;5115251;28;19907;-76
2023/10/28 10:55:25;;;;;;;;;;;16.80;99.90;;;;;;5115057;28;19994;-76
2023/10/28 10:57:51;;;;;;;;;;;16.80;99.90;;;;;;5115359;28;20269;-77
2023/10/28 11:00:18;;;;;;;;;;;16.70;99.90;;;;;;5115530;28;20002;-73
2023/10/28 11:02:46;;;;;;;;;;;16.70;99.90;;;;;;5115334;28;20047;-74
2023/10/28 11:05:13;;;;;;;;;;;16.70;99.90;;;;;;5115199;28;19967;-73
2023/10/28 11:07:42;;;;;;;;;;;16.70;99.90;;;;;;5114888;28;19915;-73
2023/10/28 11:10:09;;;;;;;;;;;16.70;99.90;;;;;;5111245;28;19915;-74
2023/10/28 11:12:36;;;;;;;;;;;16.70;99.90;;;;;;5113083;28;19914;-75
2023/10/28 11:15:03;;;;;;;;;;;16.70;99.90;;;;;;5114175;28;19911;-72
2023/10/28 11:17:30;;;;;;;;;;;16.60;99.90;;;;;;5114409;28;19915;-73
2023/10/28 11:20:03;;;;;;;;;;;16.70;99.90;;;;;;5114513;28;19910;-75
2023/10/28 11:22:30;;;;;;;;;;;16.60;99.90;;;;;;5114056;28;19968;-75
2023/10/28 11:24:57;;;;;;;;;;;16.70;99.90;;;;;;5114450;28;19947;-75
2023/10/28 11:27:25;;;;;;;;;;;16.60;99.90;;;;;;5114254;28;19908;-76
2023/10/28 11:29:52;;;;;;;;;;;16.50;99.90;;;;;;5114573;28;19939;-75
2023/10/28 11:32:21;;;;;;;;;;;16.60;99.90;;;;;;5114678;28;19939;-77
2023/10/28 11:34:48;;;;;;;;;;;16.60;99.90;;;;;;5114667;28;19908;-74
2023/10/28 11:37:15;;;;;;;;;;;16.60;99.90;;;;;;5114437;28;19911;-75
2023/10/28 11:39:47;;;;;;;;;;;16.60;99.90;;;;;;5114592;28;19907;-75
2023/10/28 11:42:17;;;;;;;;;;;16.60;99.90;;;;;;5114029;28;19930;-73
2023/10/28 11:44:49;;;;;;;;;;;16.70;99.90;;;;;;5114300;28;19915;-78
2023/10/28 11:47:16;;;;;;;;;;;16.50;99.90;;;;;;5095970;28;20435;-77
2023/10/28 11:49:42;;;;;;;;;;;16.50;99.90;;;;;;5114083;28;20396;-79
2023/10/28 11:52:11;;;;;;;;;;;16.50;99.90;;;;;;5114031;28;20002;-77
2023/10/28 11:54:38;;;;;;;;;;;16.40;99.90;;;;;;5112377;28;19912;-77
2023/10/28 11:57:05;;;;;;;;;;;16.40;99.90;;;;;;5114455;28;19912;-74
2023/10/28 11:59:31;;;;;;;;;;;16.30;99.90;;;;;;5114119;28;20308;-75
2023/10/28 12:01:58;;;;;;;;;;;16.40;99.90;;;;;;5113892;28;19908;-75
2023/10/28 12:04:25;;;;;;;;;;;16.30;99.90;;;;;;5114016;28;20293;-75
2023/10/28 12:06:52;;;;;;;;;;;16.20;99.90;;;;;;5113943;28;19922;-76
2023/10/28 12:09:18;;;;;;;;;;;16.10;99.90;;;;;;5113832;28;20014;-75
2023/10/28 12:11:46;;;;;;;;;;;16.10;99.90;;;;;;5113941;28;19908;-75
2023/10/28 12:14:12;;;;;;;;;;;16.10;99.90;;;;;;5113878;28;20410;-74
2023/10/28 12:16:39;;;;;;;;;;;16.10;99.90;;;;;;5113973;28;19962;-76
2023/10/28 12:19:06;;;;;;;;;;;16.00;99.90;;;;;;5113934;28;19919;-76
2023/10/28 12:21:33;;;;;;;;;;;16.00;99.90;;;;;;5113886;28;19908;-75
2023/10/28 12:24:00;;;;;;;;;;;16.00;99.90;;;;;;5113799;28;19954;-75
2023/10/28 12:26:27;;;;;;;;;;;15.90;99.90;;;;;;5114047;28;19907;-75
2023/10/28 12:28:53;;;;;;;;;;;15.90;99.90;;;;;;5113889;28;20424;-75
2023/10/28 12:31:22;;;;;;;;;;;15.90;99.90;;;;;;5113602;28;20032;-75
2023/10/28 12:33:49;;;;;;;;;;;15.80;99.90;;;;;;5113526;28;19908;-73
2023/10/28 12:36:17;;;;;;;;;;;15.80;99.90;;;;;;5113286;28;19908;-76
2023/10/28 12:38:44;;;;;;;;;;;15.80;99.90;;;;;;5094985;28;20368;-76
2023/10/28 12:41:12;;;;;;;;;;;15.80;99.90;;;;;;5113443;28;19915;-74
2023/10/28 12:43:39;;;;;;;;;;;15.80;99.90;;;;;;5113359;28;19915;-76
2023/10/28 12:46:06;;;;;;;;;;;15.70;99.90;;;;;;5105401;28;19916;-73
2023/10/28 12:48:33;;;;;;;;;;;15.70;99.90;;;;;;5074620;28;20385;-74
2023/10/28 12:51:00;;;;;;;;;;;16.00;99.90;;;;;;5091540;28;19923;-74
2023/10/28 12:53:30;;;;;;;;;;;15.70;99.90;;;;;;5113207;28;19914;-76
2023/10/28 12:55:57;;;;;;;;;;;15.60;99.90;;;;;;5095857;28;19915;-74
2023/10/28 12:58:24;;;;;;;;;;;15.60;99.90;;;;;;5116022;28;19908;-75
2023/10/28 13:00:51;;;;;;;;;;;15.60;99.90;;;;;;5115918;28;19912;-73
2023/10/28 13:03:18;;;;;;;;;;;15.50;99.90;;;;;;5114806;28;19939;-74
2023/10/28 13:05:45;;;;;;;;;;;15.50;99.90;;;;;;5113970;28;19908;-74
2023/10/28 13:08:13;;;;;;;;;;;15.50;99.90;;;;;;5099411;28;19915;-74
2023/10/28 13:10:40;;;;;;;;;;;15.40;99.90;;;;;;5098701;28;19916;-75
2023/10/28 13:13:06;;;;;;;;;;;15.40;99.90;;;;;;5117316;28;19908;-74
2023/10/28 13:15:33;;;;;;;;;;;15.30;99.90;;;;;;5117527;28;19911;-74
2023/10/28 13:18:00;;;;;;;;;;;15.30;99.90;;;;;;5117225;28;19961;-74
2023/10/28 13:20:27;;;;;;;;;;;15.30;99.90;;;;;;5116778;28;19946;-73
2023/10/28 13:22:53;;;;;;;;;;;15.40;99.90;;;;;;5117145;28;20360;-74
2023/10/28 13:25:20;;;;;;;;;;;15.30;99.90;;;;;;5098817;28;19908;-73
2023/10/28 13:27:47;;;;;;;;;;;15.30;99.90;;;;;;5116910;28;19908;-73
2023/10/28 13:30:15;;;;;;;;;;;15.30;99.90;;;;;;5116935;28;19955;-73
2023/10/28 13:32:43;;;;;;;;;;;15.30;99.90;;;;;;5117043;28;19916;-73
2023/10/28 13:35:11;;;;;;;;;;;15.20;99.90;;;;;;5117151;28;19908;-73
2023/10/28 13:37:38;;;;;;;;;;;15.20;99.90;;;;;;5116559;28;19912;-73
2023/10/28 13:40:06;;;;;;;;;;;15.10;99.90;;;;;;5116770;28;20064;-73
2023/10/28 13:42:33;;;;;;;;;;;15.10;99.90;;;;;;5099007;28;19907;-74
2023/10/28 13:44:59;;;;;;;;;;;15.10;99.90;;;;;;5098636;28;20364;-74
2023/10/28 13:47:26;;;;;;;;;;;15.10;99.90;;;;;;5100956;28;20368;-73
2023/10/28 13:49:52;;;;;;;;;;;15.10;99.90;;;;;;5096217;28;19920;-74
2023/10/28 13:52:19;;;;;;;;;;;15.10;99.90;;;;;;5077659;28;19939;-73
2023/10/28 13:54:46;;;;;;;;;;;15.20;99.90;;;;;;5096100;28;19915;-74
2023/10/28 13:57:12;;;;;;;;;;;15.10;99.90;;;;;;5096141;28;19915;-73
2023/10/28 13:59:39;;;;;;;;;;;15.10;99.90;;;;;;5096194;28;20324;-75
2023/10/28 14:02:08;;;;;;;;;;;15.00;99.90;;;;;;5096177;28;19961;-74
2023/10/28 14:04:35;;;;;;;;;;;15.00;99.90;;;;;;5095854;28;19912;-75
2023/10/28 14:07:02;;;;;;;;;;;15.00;99.90;;;;;;5096105;28;19922;-74
2023/10/28 14:09:28;;;;;;;;;;;15.00;99.90;;;;;;5095949;28;19912;-74
2023/10/28 14:11:55;;;;;;;;;;;15.00;99.90;;;;;;5096075;28;19958;-74
2023/10/28 14:14:22;;;;;;;;;;;15.10;99.90;;;;;;5095960;28;19940;-73
2023/10/28 14:16:48;;;;;;;;;;;15.00;99.90;;;;;;5095769;28;19912;-74
2023/10/28 14:19:15;;;;;;;;;;;15.00;99.90;;;;;;5094746;28;19939;-73